Monday, December 22, 2014
03:28 UTC
  |  Log In   |  Register Free
Airport Search:

South Alabama Regional At Bill Benton Field Airport
(K79J)

South Alabama Regional At Bill Benton Field Airport Diagram
No Airport Diagram Available

FAA data valid effective November 13, 2014 - January 08, 2015 (unless otherwise noted).

 
 
 
 
 
 
 
 
 
 
 
 
 
 

Current Aviation Weather for South Alabama Regional At Bill Benton Field Airport (K79J)

The most recent METAR observation for K79J was updated at: 2116
METAR Summary (Translated METAR)
K79J
182056Z AUTO 31005KT 10SM BKN110 19/M02 A3011 RMK AO2 SLP194 T01941022 55018
K0J4
182058Z AUTO 00000KT 10SM FEW100 18/M01 A3012 RMK AO2 SLP199 T01831006 56018 $
(16.5 nm SE from K79J)
KEDN
182055Z AUTO 00000KT 10SM SCT120 16/00 A3009 RMK AO2
(25.3 nm SE from K79J)
TAF
No TAF information found within 50 nm of KLOR
  Airport Weather Conditions for K79J

 Current Weather at 79J
57° F
Fog/Mist
Southeast winds at 4.6 mph
79J NOAA Radar

Pressure: 30.03 in
Humidity: 87%
Wind: Southeast at 4.6 MPH (4 KT)
Dew Point: 53.1°F
Visibility: 3.00 mi


Airport Weather Forecast for K79J

Translated METAR and TAF for KLOR
Translated METAR for KLOR (0329 UTC 22 December 2014)
found at http://aviationweather.gov/adds/metars/
 
METAR text: KLOR 220308Z AUTO 09004KT 2 1/2SM BR OVC004 12/11 A3002 RMK AO2 T01170106 TSNO PNO $
Conditions at: KLOR (LOWE AHP/FT. RUC, AL, US) observed 0308 UTC 22 December 2014
Temperature: 11.7°C (53°F)
Dewpoint: 10.6°C (51°F) [RH = 93%]
Pressure (altimeter): 30.02 inches Hg (1016.7 mb)
Winds: from the E (90 degrees) at 5 MPH (4 knots; 2.1 m/s)
Visibility: 2.50 miles (4.02 km)
Ceiling: 400 feet AGL
Clouds: overcast cloud deck at 400 feet AGL
Weather: BR  (mist)
SOME DATA ABOVE MAY BE INACCURATE!!!
"$" is an indication the sensor requires maintenance
Translated TAF for KLOR

There is no translated TAF available for this airport

Find All Airport Services Find A Hotel Find A Rental Car Find A Golf Course Find A Restaurant $100 Hamburger



FBO's on the Field
FBO Company Facility Photos Services Transportation Aviation Fuel Prices: Prices include tax
Catering Weather Repair Courtesy Rental Type 100LL JetA JetA+ MOGAS 8087
 
South Alabama Regional Airport

This FBO has not yet been rated
FS:Phillips 66
Last Updated: Dec-18
Login to update fuel prices
SS:
Contact South Alabama Regional AirportMore FBO Information
 
Add another FBO Facility Photos Catering Weather Repair Courtesy Rental Type 100LL JetA JetA+ MOGAS 8087
Services Transportation Aviation Fuel Prices: Prices include tax


model-print
model-print
model-print
model-print